createdAt,value
2022-10-01T00:00:53.644Z,30.14
2022-10-01T00:01:53.739Z,30.29
2022-10-01T00:02:53.720Z,30.33
2022-10-01T00:03:53.654Z,30.33
2022-10-01T00:04:53.679Z,30.42
2022-10-01T00:05:53.658Z,30.3
2022-10-01T00:06:53.666Z,30.27
2022-10-01T00:07:53.680Z,30.29
2022-10-01T00:08:53.656Z,30.28
2022-10-01T00:09:53.683Z,30.23
2022-10-01T00:10:53.694Z,30.31
2022-10-01T00:11:53.662Z,30.16
2022-10-01T00:12:53.654Z,29.87
2022-10-01T00:13:53.706Z,30.16
2022-10-01T00:14:53.672Z,30.4
2022-10-01T00:15:53.656Z,30.4
2022-10-01T00:16:53.673Z,30.53
2022-10-01T00:17:53.676Z,30.52
2022-10-01T00:18:53.670Z,30.65
2022-10-01T00:19:53.675Z,30.7
2022-10-01T00:20:53.665Z,30.46
2022-10-01T00:21:53.664Z,30.44
2022-10-01T00:22:53.669Z,30.53
2022-10-01T00:23:53.655Z,30.53
2022-10-01T00:24:53.828Z,30.72
2022-10-01T00:25:53.666Z,30.52
2022-10-01T00:26:53.661Z,30.58
2022-10-01T00:27:53.706Z,30.47
2022-10-01T00:28:53.670Z,30.52
2022-10-01T00:29:53.668Z,30.46
2022-10-01T00:30:53.644Z,30.6
2022-10-01T00:31:53.701Z,30.81
2022-10-01T00:32:53.665Z,30.52
2022-10-01T00:33:53.661Z,30.46
2022-10-01T00:34:53.674Z,30.32
2022-10-01T00:35:53.659Z,30.38
2022-10-01T00:36:53.663Z,30.31
2022-10-01T00:37:53.644Z,30.55
2022-10-01T00:38:53.646Z,30.56
2022-10-01T00:39:53.664Z,30.36
2022-10-01T00:40:53.653Z,30.55
2022-10-01T00:41:53.727Z,30.43
2022-10-01T00:42:53.639Z,30.34
2022-10-01T00:43:53.657Z,30.16
2022-10-01T00:44:53.692Z,30.2
2022-10-01T00:45:53.689Z,30.39
2022-10-01T00:46:53.644Z,30.45
2022-10-01T00:47:53.646Z,30.34
2022-10-01T00:48:53.645Z,30.41
2022-10-01T00:49:55.456Z,30.62
2022-10-01T00:50:53.640Z,30.72
2022-10-01T00:51:53.643Z,30.8
2022-10-01T00:52:53.644Z,31.13
2022-10-01T00:53:53.665Z,30.8
2022-10-01T00:54:53.673Z,30.93
2022-10-01T00:55:53.651Z,30.93
2022-10-01T00:56:53.662Z,30.83
2022-10-01T00:57:53.662Z,31.08
2022-10-01T00:58:53.670Z,31.05
2022-10-01T00:59:53.680Z,30.71
2022-10-01T01:00:53.695Z,30.75
2022-10-01T01:01:53.786Z,30.86
2022-10-01T01:02:53.659Z,30.88
2022-10-01T01:03:53.661Z,31.05
2022-10-01T01:04:53.676Z,30.86
2022-10-01T01:05:53.659Z,30.95
2022-10-01T01:06:53.660Z,30.9
2022-10-01T01:07:53.683Z,30.85
2022-10-01T01:08:53.662Z,30.9
2022-10-01T01:09:53.692Z,30.89
2022-10-01T01:10:53.662Z,31.05
2022-10-01T01:11:53.673Z,30.99
2022-10-01T01:12:53.669Z,30.88
2022-10-01T01:13:53.670Z,30.92
2022-10-01T01:14:53.667Z,30.8
2022-10-01T01:15:53.736Z,30.81
2022-10-01T01:16:53.662Z,30.89
2022-10-01T01:17:53.656Z,31.09
2022-10-01T01:18:53.652Z,31
2022-10-01T01:19:53.673Z,31.22
2022-10-01T01:20:53.666Z,31.34
2022-10-01T01:21:53.657Z,31.29
2022-10-01T01:22:53.671Z,31.33
2022-10-01T01:23:53.666Z,31.27
2022-10-01T01:24:53.762Z,31.17
2022-10-01T01:25:53.651Z,31.23
2022-10-01T01:26:53.661Z,31.26
2022-10-01T01:27:53.727Z,31.43
2022-10-01T01:28:53.678Z,31.26
2022-10-01T01:29:53.675Z,31.27
2022-10-01T01:30:53.677Z,31.42
2022-10-01T01:31:53.665Z,31.68
2022-10-01T01:32:53.667Z,31.57
2022-10-01T01:33:53.658Z,31.57
2022-10-01T01:34:53.671Z,31.61
2022-10-01T01:35:53.665Z,31.49
2022-10-01T01:36:53.666Z,31.58
2022-10-01T01:37:53.661Z,31.57
2022-10-01T01:38:53.661Z,31.54
2022-10-01T01:39:53.686Z,31.54
2022-10-01T01:40:53.662Z,31.55
2022-10-01T01:41:53.658Z,31.61
2022-10-01T01:42:53.666Z,31.68
2022-10-01T01:43:53.665Z,31.62
2022-10-01T01:44:53.682Z,31.76
2022-10-01T01:45:53.697Z,31.69
2022-10-01T01:46:53.661Z,31.74
2022-10-01T01:47:53.661Z,31.81
2022-10-01T01:48:53.671Z,31.83
2022-10-01T01:49:53.669Z,31.72
2022-10-01T01:50:53.648Z,32.05
2022-10-01T01:51:53.639Z,32
2022-10-01T01:52:53.655Z,32.02
2022-10-01T01:53:53.646Z,32.03
2022-10-01T01:54:53.657Z,31.94
2022-10-01T01:55:53.655Z,32
2022-10-01T01:56:53.646Z,31.9
2022-10-01T01:57:53.646Z,31.46
2022-10-01T01:58:53.665Z,31.91
2022-10-01T01:59:53.663Z,31.99
2022-10-01T02:00:53.652Z,32.12
2022-10-01T02:01:53.785Z,31.84
2022-10-01T02:02:53.743Z,31.58
2022-10-01T02:03:53.658Z,31.31
2022-10-01T02:04:53.670Z,31.58
2022-10-01T02:05:53.646Z,31.87
2022-10-01T02:06:53.659Z,31.59
2022-10-01T02:07:53.652Z,31.93
2022-10-01T02:08:53.649Z,31.88
2022-10-01T02:09:53.677Z,31.69
2022-10-01T02:10:53.652Z,32.09
2022-10-01T02:11:53.662Z,31.83
2022-10-01T02:12:53.666Z,31.83
2022-10-01T02:13:53.685Z,31.97
2022-10-01T02:14:53.671Z,31.84
2022-10-01T02:15:53.747Z,32
2022-10-01T02:16:53.660Z,32.04
2022-10-01T02:17:53.669Z,32.03
2022-10-01T02:18:53.661Z,32.01
2022-10-01T02:19:53.678Z,32.08
2022-10-01T02:20:53.746Z,32.12
2022-10-01T02:21:53.667Z,32.29
2022-10-01T02:22:53.662Z,32.55
2022-10-01T02:23:53.665Z,32.52
2022-10-01T02:24:53.842Z,32.16
2022-10-01T02:25:53.663Z,32.42
2022-10-01T02:26:53.661Z,32.34
2022-10-01T02:27:53.711Z,32.32
2022-10-01T02:28:53.679Z,32.4
2022-10-01T02:29:53.695Z,32.31
2022-10-01T02:30:53.678Z,32.34
2022-10-01T02:31:53.664Z,32.52
2022-10-01T02:32:53.666Z,32.31
2022-10-01T02:33:53.664Z,32.49
2022-10-01T02:34:53.676Z,32.28
2022-10-01T02:35:53.661Z,32.26
2022-10-01T02:36:53.669Z,32.1
2022-10-01T02:37:53.653Z,32.11
2022-10-01T02:38:53.670Z,31.91
2022-10-01T02:39:53.678Z,32.14
2022-10-01T02:40:53.662Z,32.08
2022-10-01T02:41:53.657Z,32.16
2022-10-01T02:42:53.666Z,31.92
2022-10-01T02:43:53.679Z,31.93
2022-10-01T02:44:53.679Z,32.06
2022-10-01T02:45:53.712Z,31.92
2022-10-01T02:46:53.654Z,31.75
2022-10-01T02:47:53.662Z,31.97
2022-10-01T02:48:53.662Z,31.78
2022-10-01T02:49:53.673Z,31.88
2022-10-01T02:50:53.657Z,31.88
2022-10-01T02:51:53.668Z,31.68
2022-10-01T02:52:53.667Z,31.72
2022-10-01T02:53:53.650Z,31.63
2022-10-01T02:54:53.675Z,31.79
2022-10-01T02:55:53.666Z,28.74
2022-10-01T02:56:56.230Z,31.78
2022-10-01T02:57:53.659Z,31.69
2022-10-01T02:58:53.672Z,31.54
2022-10-01T02:59:53.674Z,31.88
2022-10-01T03:00:53.659Z,31.34
2022-10-01T03:01:53.786Z,31.63
2022-10-01T03:02:53.758Z,31.26
2022-10-01T03:03:53.690Z,31.63
2022-10-01T03:04:53.657Z,31.59
2022-10-01T03:05:53.646Z,31.61
2022-10-01T03:06:53.648Z,31.44
2022-10-01T03:07:53.642Z,31.61
2022-10-01T03:08:53.666Z,31.52
2022-10-01T03:09:53.662Z,31.35
2022-10-01T03:10:53.649Z,31.46
2022-10-01T03:11:53.650Z,31.4
2022-10-01T03:12:53.644Z,31.65
2022-10-01T03:13:53.666Z,31.52
2022-10-01T03:14:53.666Z,31.48
2022-10-01T03:15:53.666Z,31.51
2022-10-01T03:16:53.644Z,31.61
2022-10-01T03:17:53.665Z,31.75
2022-10-01T03:18:53.654Z,31.28
2022-10-01T03:19:53.668Z,31.18
2022-10-01T03:20:53.657Z,31.21
2022-10-01T03:21:53.663Z,31.07
2022-10-01T03:22:53.667Z,31.17
2022-10-01T03:23:53.656Z,31.26
2022-10-01T03:24:53.679Z,31.29
2022-10-01T03:25:53.664Z,31.23
2022-10-01T03:26:53.664Z,31.27
2022-10-01T03:27:53.721Z,31.22
2022-10-01T03:28:53.671Z,31.09
2022-10-01T03:29:53.673Z,31.27
2022-10-01T03:30:53.778Z,30.91
2022-10-01T03:31:53.721Z,31.11
2022-10-01T03:32:53.663Z,30.92
2022-10-01T03:33:53.696Z,31.03
2022-10-01T03:34:53.676Z,31.03
2022-10-01T03:35:53.667Z,30.78
2022-10-01T03:36:53.667Z,30.78
2022-10-01T03:37:53.693Z,30.98
2022-10-01T03:38:53.657Z,31.01
2022-10-01T03:39:53.672Z,30.92
2022-10-01T03:40:53.657Z,30.92
2022-10-01T03:41:53.659Z,30.72
2022-10-01T03:42:53.656Z,30.97
2022-10-01T03:43:58.316Z,30.85
2022-10-01T03:44:53.678Z,30.78
2022-10-01T03:45:53.769Z,30.55
2022-10-01T03:46:53.656Z,30.38
2022-10-01T03:47:53.664Z,30.31
2022-10-01T03:48:53.664Z,30.56
2022-10-01T03:49:53.676Z,30.55
2022-10-01T03:50:53.657Z,30.57
2022-10-01T03:51:53.655Z,30.51
2022-10-01T03:52:53.663Z,30.56
2022-10-01T03:53:53.663Z,30.54
2022-10-01T03:54:53.676Z,30.44
2022-10-01T03:55:53.660Z,30.45
2022-10-01T03:56:53.664Z,30.51
2022-10-01T03:57:53.660Z,29.95
2022-10-01T03:58:53.676Z,30.49
2022-10-01T03:59:53.706Z,30.46
2022-10-01T04:00:53.649Z,30.38
2022-10-01T04:01:53.718Z,30.43
2022-10-01T04:02:53.759Z,30.17
2022-10-01T04:03:53.661Z,30.15
2022-10-01T04:04:53.663Z,30.35
2022-10-01T04:05:53.713Z,30.13
2022-10-01T04:06:53.665Z,30.13
2022-10-01T04:07:53.659Z,30.21
2022-10-01T04:08:53.681Z,30.29
2022-10-01T04:09:53.673Z,30.35
2022-10-01T04:10:53.651Z,30.23
2022-10-01T04:11:53.698Z,30.46
2022-10-01T04:12:53.669Z,30.19
2022-10-01T04:13:53.679Z,30.23
2022-10-01T04:14:53.700Z,30.15
2022-10-01T04:15:53.676Z,29.61
2022-10-01T04:16:53.643Z,29.86
2022-10-01T04:17:53.648Z,29.94
2022-10-01T04:18:53.648Z,29.89
2022-10-01T04:19:53.656Z,30.02
2022-10-01T04:20:53.647Z,29.91
2022-10-01T04:21:53.649Z,29.93
2022-10-01T04:22:53.646Z,29.58
2022-10-01T04:23:53.649Z,29.59
2022-10-01T04:24:53.680Z,29.43
2022-10-01T04:25:53.646Z,29.37
2022-10-01T04:26:53.652Z,29.3
2022-10-01T04:27:53.673Z,29.65
2022-10-01T04:28:53.660Z,29.54
2022-10-01T04:29:53.664Z,29.93
2022-10-01T04:30:53.662Z,29.58
2022-10-01T04:31:53.719Z,29.62
2022-10-01T04:32:53.652Z,29.55
2022-10-01T04:33:53.657Z,29.49
2022-10-01T04:34:53.733Z,29.23
2022-10-01T04:35:53.663Z,29.54
2022-10-01T04:36:53.675Z,29.39
2022-10-01T04:37:53.653Z,29.7
2022-10-01T04:38:57.926Z,29.31
2022-10-01T04:39:53.674Z,29.41
2022-10-01T04:40:53.660Z,29.41
2022-10-01T04:41:53.662Z,29.19
2022-10-01T04:42:53.665Z,29.15
2022-10-01T04:43:53.681Z,29.37
2022-10-01T04:44:53.670Z,29.64
2022-10-01T04:45:53.672Z,29.58
2022-10-01T04:46:53.691Z,29.57
2022-10-01T04:47:53.662Z,29.61
2022-10-01T04:48:53.657Z,29.53
2022-10-01T04:49:53.685Z,29.53
2022-10-01T04:50:53.662Z,29.55
2022-10-01T04:51:53.682Z,29.5
2022-10-01T04:52:53.661Z,29.58
2022-10-01T04:53:53.659Z,29.74
2022-10-01T04:54:53.679Z,29.78
2022-10-01T04:55:53.655Z,29.86
2022-10-01T04:56:53.669Z,29.94
2022-10-01T04:57:53.662Z,29.79
2022-10-01T04:58:53.677Z,29.7
2022-10-01T04:59:53.675Z,29.71
2022-10-01T05:00:55.616Z,29.5
2022-10-01T05:01:53.706Z,29.42
2022-10-01T05:02:53.656Z,29.47
2022-10-01T05:03:53.680Z,29.5
2022-10-01T05:04:53.688Z,29.46
2022-10-01T05:05:53.660Z,29.55
2022-10-01T05:06:53.664Z,29.6
2022-10-01T05:07:53.661Z,29.37
2022-10-01T05:08:53.662Z,29.37
2022-10-01T05:09:53.671Z,29.36
2022-10-01T05:10:53.698Z,29.37
2022-10-01T05:11:53.647Z,29.47
2022-10-01T05:12:53.662Z,29.26
2022-10-01T05:13:53.730Z,29.35
2022-10-01T05:14:53.673Z,29.02
2022-10-01T05:15:53.706Z,29.17
2022-10-01T05:16:53.672Z,29.28
2022-10-01T05:17:53.657Z,29.36
2022-10-01T05:18:53.661Z,29.35
2022-10-01T05:19:53.707Z,29.28
2022-10-01T05:20:53.661Z,29.21
2022-10-01T05:21:53.656Z,28.94
2022-10-01T05:22:53.649Z,28.89
2022-10-01T05:23:53.646Z,28.99
2022-10-01T05:24:53.711Z,29.13
2022-10-01T05:25:53.647Z,28.99
2022-10-01T05:26:53.644Z,29.12
2022-10-01T05:27:53.667Z,28.95
2022-10-01T05:28:53.657Z,28.97
2022-10-01T05:29:53.661Z,28.97
2022-10-01T05:30:53.648Z,29.21
2022-10-01T05:31:53.702Z,29.36
2022-10-01T05:32:53.646Z,29.02
2022-10-01T05:33:53.646Z,28.97
2022-10-01T05:34:53.859Z,28.82
2022-10-01T05:35:53.650Z,28.89
2022-10-01T05:36:53.643Z,28.95
2022-10-01T05:37:53.658Z,28.92
2022-10-01T05:38:53.659Z,28.85
2022-10-01T05:39:53.656Z,28.71
2022-10-01T05:40:53.657Z,28.74
2022-10-01T05:41:53.646Z,28.46
2022-10-01T05:42:53.660Z,28.58
2022-10-01T05:43:53.675Z,28.64
2022-10-01T05:44:53.743Z,28.65
2022-10-01T05:45:53.710Z,28.37
2022-10-01T05:46:53.655Z,28.36
2022-10-01T05:47:53.661Z,28.56
2022-10-01T05:48:53.665Z,28.64
2022-10-01T05:49:53.677Z,28.52
2022-10-01T05:50:53.665Z,28.34
2022-10-01T05:51:53.658Z,28.34
2022-10-01T05:52:53.665Z,28.34
2022-10-01T05:53:53.656Z,28.21
2022-10-01T05:54:53.673Z,28.45
2022-10-01T05:55:53.664Z,28.23
2022-10-01T05:56:53.659Z,28.17
2022-10-01T05:57:53.660Z,28.18
2022-10-01T05:58:53.672Z,28.09
2022-10-01T05:59:53.679Z,28.07
2022-10-01T06:00:53.663Z,28.03
2022-10-01T06:01:53.845Z,27.93
2022-10-01T06:02:53.759Z,27.9
2022-10-01T06:03:53.664Z,27.64
2022-10-01T06:04:53.677Z,27.48
2022-10-01T06:05:53.662Z,27.69
2022-10-01T06:06:53.660Z,27.75
2022-10-01T06:07:53.681Z,27.85
2022-10-01T06:08:53.656Z,27.66
2022-10-01T06:09:53.683Z,27.64
2022-10-01T06:10:53.670Z,27.56
2022-10-01T06:11:53.659Z,27.69
2022-10-01T06:12:53.665Z,27.7
2022-10-01T06:13:53.673Z,27.62
2022-10-01T06:14:53.676Z,27.44
2022-10-01T06:15:53.663Z,27.52
2022-10-01T06:16:53.699Z,27.53
2022-10-01T06:17:53.657Z,27.54
2022-10-01T06:18:53.664Z,27.54
2022-10-01T06:19:53.676Z,27.51
2022-10-01T06:20:53.664Z,27.43
2022-10-01T06:21:53.654Z,27.6
2022-10-01T06:22:53.659Z,27.41
2022-10-01T06:23:53.671Z,27.63
2022-10-01T06:24:56.590Z,27.64
2022-10-01T06:25:53.665Z,27.15
2022-10-01T06:26:53.665Z,27.39
2022-10-01T06:27:53.712Z,27.36
2022-10-01T06:28:53.675Z,27.44
2022-10-01T06:29:53.676Z,27.39
2022-10-01T06:30:53.646Z,27.28
2022-10-01T06:31:53.680Z,27.13
2022-10-01T06:32:53.650Z,27.05
2022-10-01T06:33:53.658Z,26.95
2022-10-01T06:34:53.813Z,26.88
2022-10-01T06:35:53.647Z,26.92
2022-10-01T06:36:53.644Z,26.71
2022-10-01T06:37:53.666Z,26.61
2022-10-01T06:38:53.641Z,26.64
2022-10-01T06:39:53.683Z,26.82
2022-10-01T06:40:53.641Z,26.63
2022-10-01T06:41:53.642Z,26.81
2022-10-01T06:42:56.677Z,26.91
2022-10-01T06:43:53.658Z,26.55
2022-10-01T06:44:53.658Z,26.32
2022-10-01T06:45:53.700Z,26.52
2022-10-01T06:46:53.655Z,26.52
2022-10-01T06:47:53.649Z,26.58
2022-10-01T06:48:53.648Z,26.44
2022-10-01T06:49:53.655Z,26.44
2022-10-01T06:50:53.652Z,26.44
2022-10-01T06:51:53.651Z,26.72
2022-10-01T06:52:53.666Z,26.71
2022-10-01T06:53:53.659Z,26.69
2022-10-01T06:54:53.670Z,26.71
2022-10-01T06:55:53.650Z,26.78
2022-10-01T06:56:53.661Z,26.67
2022-10-01T06:57:53.654Z,26.67
2022-10-01T06:58:53.671Z,26.63
2022-10-01T06:59:53.678Z,26.78
2022-10-01T07:00:53.727Z,26.58
2022-10-01T07:01:56.290Z,26.86
2022-10-01T07:02:53.660Z,26.8
2022-10-01T07:03:53.657Z,26.68
2022-10-01T07:04:53.682Z,26.54
2022-10-01T07:05:53.660Z,26.49
2022-10-01T07:06:53.664Z,26.61
2022-10-01T07:07:53.670Z,26.63
2022-10-01T07:08:53.658Z,26.75
2022-10-01T07:09:53.676Z,26.69
2022-10-01T07:10:53.657Z,26.82
2022-10-01T07:11:53.658Z,26.68
2022-10-01T07:12:53.661Z,26.75
2022-10-01T07:13:54.529Z,26.85
2022-10-01T07:14:53.666Z,26.74
2022-10-01T07:15:53.662Z,26.86
2022-10-01T07:16:53.727Z,26.88
2022-10-01T07:17:53.657Z,26.93
2022-10-01T07:18:53.662Z,26.64
2022-10-01T07:19:53.677Z,26.66
2022-10-01T07:20:53.664Z,26.79
2022-10-01T07:21:53.663Z,26.55
2022-10-01T07:22:53.656Z,26.71
2022-10-01T07:23:53.664Z,26.49
2022-10-01T07:24:53.673Z,26.63
2022-10-01T07:25:53.727Z,26.65
2022-10-01T07:26:53.660Z,26.54
2022-10-01T07:27:53.709Z,26.6
2022-10-01T07:28:53.673Z,26.67
2022-10-01T07:29:53.666Z,26.62
2022-10-01T07:30:53.657Z,26.67
2022-10-01T07:31:53.702Z,26.63
2022-10-01T07:32:53.663Z,26.62
2022-10-01T07:33:53.656Z,26.73
2022-10-01T07:34:53.674Z,26.6
2022-10-01T07:35:53.660Z,26.41
2022-10-01T07:36:53.666Z,26.23
2022-10-01T07:37:53.668Z,26.24
2022-10-01T07:38:53.663Z,26.34
2022-10-01T07:39:53.665Z,26.4
2022-10-01T07:40:53.643Z,26.32
2022-10-01T07:41:53.657Z,26.3
2022-10-01T07:42:53.643Z,26.21
2022-10-01T07:43:53.737Z,26.19
2022-10-01T07:44:53.714Z,26.19
2022-10-01T07:48:53.652Z,26.06
2022-10-01T07:49:53.694Z,25.89
2022-10-01T07:50:53.726Z,25.83
2022-10-01T07:51:53.647Z,25.83
2022-10-01T07:52:53.656Z,25.69
2022-10-01T07:53:53.668Z,25.98
2022-10-01T07:54:53.648Z,25.58
2022-10-01T07:55:53.668Z,25.51
2022-10-01T07:56:53.657Z,25.7
2022-10-01T07:57:53.661Z,25.64
2022-10-01T07:58:53.662Z,25.7
2022-10-01T07:59:55.890Z,26
2022-10-01T08:00:53.691Z,25.88
2022-10-01T08:01:53.730Z,25.75
2022-10-01T08:02:53.671Z,25.75
2022-10-01T08:03:53.672Z,25.74
2022-10-01T08:04:53.651Z,25.79
2022-10-01T08:05:53.706Z,25.77
2022-10-01T08:06:53.661Z,25.91
2022-10-01T08:07:53.655Z,26.03
2022-10-01T08:08:53.663Z,25.9
2022-10-01T08:09:53.662Z,26.09
2022-10-01T08:10:53.676Z,26.02
2022-10-01T08:11:53.672Z,25.91
2022-10-01T08:12:53.659Z,24.66
2022-10-01T08:13:53.670Z,24.27
2022-10-01T08:14:53.667Z,25.42
2022-10-01T08:15:53.702Z,25.78
2022-10-01T08:16:53.718Z,26.15
2022-10-01T08:17:53.662Z,26.03
2022-10-01T08:18:53.669Z,25.94
2022-10-01T08:19:53.663Z,26.27
2022-10-01T08:20:53.672Z,26.08
2022-10-01T08:21:53.671Z,25.93
2022-10-01T08:22:53.672Z,26.13
2022-10-01T08:23:53.679Z,25.76
2022-10-01T08:24:53.708Z,25.95
2022-10-01T08:25:53.748Z,25.93
2022-10-01T08:26:53.674Z,25.93
2022-10-01T08:27:53.681Z,25.87
2022-10-01T08:28:53.676Z,25.82
2022-10-01T08:29:53.673Z,26.08
2022-10-01T08:30:53.661Z,25.95
2022-10-01T08:31:53.730Z,26.04
2022-10-01T08:32:53.659Z,25.91
2022-10-01T08:33:53.677Z,25.8
2022-10-01T08:34:56.493Z,25.74
2022-10-01T08:35:53.664Z,25.82
2022-10-01T08:36:53.666Z,25.79
2022-10-01T08:37:53.673Z,25.81
2022-10-01T08:38:53.680Z,25.85
2022-10-01T08:39:53.669Z,25.73
2022-10-01T08:40:53.679Z,25.95
2022-10-01T08:41:53.668Z,25.51
2022-10-01T08:42:53.704Z,25.69
2022-10-01T08:43:53.676Z,25.67
2022-10-01T08:44:53.662Z,25.8
2022-10-01T08:45:53.725Z,25.71
2022-10-01T08:46:53.660Z,25.62
2022-10-01T08:47:53.655Z,25.62
2022-10-01T08:48:56.938Z,25.76
2022-10-01T08:49:53.659Z,25.43
2022-10-01T08:50:53.651Z,25.46
2022-10-01T08:51:53.663Z,25.75
2022-10-01T08:52:53.648Z,25.5
2022-10-01T08:53:53.684Z,25.2
2022-10-01T08:54:53.654Z,25.17
2022-10-01T08:55:53.666Z,25.53
2022-10-01T08:56:53.654Z,25.75
2022-10-01T08:57:53.653Z,25.81
2022-10-01T08:58:53.660Z,25.75
2022-10-01T08:59:53.655Z,25.71
2022-10-01T09:00:53.699Z,25.49
2022-10-01T09:01:53.659Z,25.76
2022-10-01T09:02:53.646Z,25.65
2022-10-01T09:03:53.669Z,25.56
2022-10-01T09:04:55.901Z,25.62
2022-10-01T09:05:53.673Z,25.37
2022-10-01T09:06:53.666Z,25.66
2022-10-01T09:07:53.701Z,25.65
2022-10-01T09:08:53.671Z,25.61
2022-10-01T09:09:53.671Z,25.47
2022-10-01T09:10:53.668Z,25.58
2022-10-01T09:11:53.663Z,25.8
2022-10-01T09:12:53.664Z,25.64
2022-10-01T09:13:53.669Z,25.55
2022-10-01T09:14:53.654Z,25.52
2022-10-01T09:15:53.668Z,25.39
2022-10-01T09:16:53.722Z,25.7
2022-10-01T09:17:53.659Z,25.7
2022-10-01T09:18:53.673Z,25.81
2022-10-01T09:19:53.667Z,25.92
2022-10-01T09:20:53.668Z,25.86
2022-10-01T09:21:53.670Z,25.62
2022-10-01T09:22:53.657Z,25.77
2022-10-01T09:23:53.687Z,25.75
2022-10-01T09:24:53.665Z,25.69
2022-10-01T09:25:53.675Z,25.67
2022-10-01T09:26:53.668Z,26.1
2022-10-01T09:27:53.711Z,25.86
2022-10-01T09:28:53.672Z,25.47
2022-10-01T09:29:53.666Z,25.53
2022-10-01T09:30:53.669Z,25.8
2022-10-01T09:31:53.809Z,25.53
2022-10-01T09:32:53.686Z,25.34
2022-10-01T09:33:53.696Z,25.56
2022-10-01T09:34:53.668Z,25.48
2022-10-01T09:35:53.652Z,25.53
2022-10-01T09:36:53.662Z,25.19
2022-10-01T09:37:53.667Z,25.17
2022-10-01T09:38:53.702Z,25.29
2022-10-01T09:39:53.668Z,25.19
2022-10-01T09:40:53.678Z,25.41
2022-10-01T09:41:53.670Z,25.51
2022-10-01T09:42:53.670Z,25.11
2022-10-01T09:43:53.678Z,25.1
2022-10-01T09:44:53.663Z,25.26
2022-10-01T09:45:53.731Z,25.15
2022-10-01T09:46:53.666Z,25.28
2022-10-01T09:47:53.672Z,25.07
2022-10-01T09:48:53.674Z,25.07
2022-10-01T09:49:53.661Z,25.1
2022-10-01T09:50:53.662Z,25.32
2022-10-01T09:51:53.668Z,23.76
2022-10-01T09:52:53.661Z,24.95
2022-10-01T09:53:53.689Z,25.54
2022-10-01T09:54:53.665Z,25.48
2022-10-01T09:55:53.672Z,25.43
2022-10-01T09:56:53.657Z,25.23
2022-10-01T09:57:53.652Z,25.05
2022-10-01T09:58:53.665Z,25.18
2022-10-01T09:59:53.658Z,25.2
2022-10-01T10:00:53.647Z,25.21
2022-10-01T10:01:53.764Z,24.98
2022-10-01T10:02:53.725Z,25.34
2022-10-01T10:03:53.675Z,25.4
2022-10-01T10:04:53.656Z,25.1
2022-10-01T10:05:53.695Z,25.06
2022-10-01T10:06:53.647Z,24.93
2022-10-01T10:07:53.658Z,23.02
2022-10-01T10:08:53.670Z,24.94
2022-10-01T10:09:53.650Z,25.24
2022-10-01T10:10:53.677Z,25.16
2022-10-01T10:11:53.651Z,24.94
2022-10-01T10:12:53.654Z,25.06
2022-10-01T10:13:53.669Z,24.89
2022-10-01T10:14:53.652Z,24.95
2022-10-01T10:15:53.745Z,25.16
2022-10-01T10:16:53.653Z,25.18
2022-10-01T10:17:53.648Z,25.05
2022-10-01T10:18:53.664Z,24.91
2022-10-01T10:19:53.720Z,24.82
2022-10-01T10:20:53.671Z,24.79
2022-10-01T10:21:53.667Z,24.83
2022-10-01T10:22:53.659Z,24.7
2022-10-01T10:23:53.671Z,24.65
2022-10-01T10:24:53.681Z,24.89
2022-10-01T10:25:53.672Z,24.76
2022-10-01T10:26:53.664Z,24.76
2022-10-01T10:27:53.751Z,24.8
2022-10-01T10:28:53.674Z,24.83
2022-10-01T10:29:53.659Z,24.82
2022-10-01T10:30:53.665Z,24.73
2022-10-01T10:31:53.712Z,24.71
2022-10-01T10:32:53.705Z,24.76
2022-10-01T10:33:53.682Z,24.8
2022-10-01T10:34:53.662Z,24.76
2022-10-01T10:35:53.671Z,24.76
2022-10-01T10:36:53.669Z,24.67
2022-10-01T10:37:53.667Z,24.78
2022-10-01T10:38:53.759Z,24.7
2022-10-01T10:39:53.668Z,24.95
2022-10-01T10:40:53.675Z,24.99
2022-10-01T10:41:53.658Z,24.9
2022-10-01T10:42:53.660Z,25
2022-10-01T10:43:53.670Z,24.77
2022-10-01T10:44:53.664Z,24.62
2022-10-01T10:45:53.703Z,24.6
2022-10-01T10:46:53.795Z,24.69
2022-10-01T10:47:53.645Z,24.62
2022-10-01T10:48:53.671Z,24.57
2022-10-01T10:49:53.665Z,24.82
2022-10-01T10:50:53.663Z,25.01
2022-10-01T10:51:53.672Z,25.08
2022-10-01T10:52:53.663Z,24.93
2022-10-01T10:53:53.680Z,24.9
2022-10-01T10:54:53.664Z,24.8
2022-10-01T10:55:53.677Z,24.89
2022-10-01T10:56:53.829Z,24.94
2022-10-01T10:57:57.287Z,24.9
2022-10-01T10:58:53.673Z,24.87
2022-10-01T10:59:53.666Z,25.07
2022-10-01T11:00:53.664Z,25.02
2022-10-01T11:01:53.750Z,25.44
2022-10-01T11:02:53.670Z,25.32
2022-10-01T11:03:53.675Z,25.1
2022-10-01T11:04:53.666Z,25.05
2022-10-01T11:05:53.663Z,24.91
2022-10-01T11:06:53.661Z,24.87
2022-10-01T11:07:53.663Z,24.91
2022-10-01T11:08:53.666Z,24.87
2022-10-01T11:09:53.657Z,24.76
2022-10-01T11:10:53.757Z,25.11
2022-10-01T11:11:53.670Z,24.88
2022-10-01T11:12:53.653Z,24.76
2022-10-01T11:13:53.662Z,24.9
2022-10-01T11:14:53.646Z,25.34
2022-10-01T11:15:53.707Z,24.95
2022-10-01T11:16:53.650Z,24.83
2022-10-01T11:17:53.652Z,25.31
2022-10-01T11:18:53.661Z,25.62
2022-10-01T11:19:53.647Z,25.38
2022-10-01T11:20:53.646Z,25.93
2022-10-01T11:21:53.679Z,25.25
2022-10-01T11:22:53.656Z,25.08
2022-10-01T11:23:53.669Z,24.92
2022-10-01T11:24:53.650Z,25.11
2022-10-01T11:25:53.665Z,25.43
2022-10-01T11:26:53.692Z,25.3
2022-10-01T11:27:53.706Z,25.34
2022-10-01T11:28:53.679Z,25.02
2022-10-01T11:29:53.664Z,24.93
2022-10-01T11:30:53.657Z,25.18
2022-10-01T11:31:53.664Z,25.21
2022-10-01T11:32:53.671Z,25.3
2022-10-01T11:33:53.673Z,25.37
2022-10-01T11:34:53.670Z,25.83
2022-10-01T11:35:53.673Z,25.18
2022-10-01T11:36:55.519Z,25
2022-10-01T11:37:53.732Z,24.74
2022-10-01T11:38:53.676Z,24.47
2022-10-01T11:39:53.670Z,24.86
2022-10-01T11:40:53.669Z,25.1
2022-10-01T11:41:53.668Z,24.51
2022-10-01T11:42:53.662Z,24.5
2022-10-01T11:43:53.675Z,24.42
2022-10-01T11:44:57.371Z,24.41
2022-10-01T11:45:53.668Z,24.45
2022-10-01T11:46:53.745Z,23.81
2022-10-01T11:47:53.666Z,23.82
2022-10-01T11:48:53.675Z,24.53
2022-10-01T11:49:53.668Z,24.08
2022-10-01T11:50:53.662Z,24.67
2022-10-01T11:51:53.665Z,24.28
2022-10-01T11:52:53.674Z,24.73
2022-10-01T11:53:53.682Z,24.77
2022-10-01T11:54:56.197Z,24.56
2022-10-01T11:55:53.675Z,24.25
2022-10-01T11:56:53.659Z,24.57
2022-10-01T11:57:53.674Z,24.83
2022-10-01T11:58:53.675Z,24.83
2022-10-01T11:59:53.666Z,25.15
2022-10-01T12:00:53.693Z,25.16
2022-10-01T12:01:53.755Z,25.28
2022-10-01T12:02:53.674Z,24.77
2022-10-01T12:03:53.680Z,24.55
2022-10-01T12:04:53.673Z,24.41
2022-10-01T12:05:53.730Z,24.46
2022-10-01T12:06:53.672Z,24.78
2022-10-01T12:07:53.669Z,24.37
2022-10-01T12:08:53.677Z,24.14
2022-10-01T12:09:53.667Z,24.66
2022-10-01T12:10:53.738Z,24.57
2022-10-01T12:11:53.658Z,24.33
2022-10-01T12:12:53.660Z,24.55
2022-10-01T12:13:53.704Z,24.61
2022-10-01T12:14:53.669Z,24.66
2022-10-01T12:15:53.691Z,24.56
2022-10-01T12:16:53.654Z,24.7
2022-10-01T12:17:53.665Z,24.7
2022-10-01T12:18:53.675Z,25
2022-10-01T12:19:53.672Z,24.94
2022-10-01T12:20:53.653Z,24.92
2022-10-01T12:21:53.672Z,24.46
2022-10-01T12:22:53.650Z,24.19
2022-10-01T12:23:53.663Z,24.62
2022-10-01T12:24:53.654Z,24.88
2022-10-01T12:25:53.663Z,24.58
2022-10-01T12:26:53.666Z,24.88
2022-10-01T12:27:53.716Z,24.88
2022-10-01T12:28:56.684Z,24.64
2022-10-01T12:29:53.646Z,24.48
2022-10-01T12:30:53.652Z,24.72
2022-10-01T12:31:53.646Z,24.72
2022-10-01T12:32:53.668Z,24.49
2022-10-01T12:33:53.662Z,24.53
2022-10-01T12:34:54.508Z,24.52
2022-10-01T12:35:53.645Z,24.77
2022-10-01T12:36:53.661Z,24.52
2022-10-01T12:37:53.666Z,24.73
2022-10-01T12:38:53.663Z,24.52
2022-10-01T12:39:53.668Z,24.59
2022-10-01T12:40:53.675Z,24.41
2022-10-01T12:41:53.678Z,24.53
2022-10-01T12:42:53.672Z,24.44
2022-10-01T12:43:53.680Z,25.05
2022-10-01T12:44:53.766Z,24.57
2022-10-01T12:45:53.762Z,24.49
2022-10-01T12:46:53.659Z,24.3
2022-10-01T12:47:53.669Z,24.45
2022-10-01T12:48:53.677Z,24.87
2022-10-01T12:49:53.672Z,24.24
2022-10-01T12:50:53.658Z,24.41
2022-10-01T12:51:53.671Z,24.36
2022-10-01T12:52:53.665Z,24.71
2022-10-01T12:53:53.706Z,24.31
2022-10-01T12:54:53.660Z,24.35
2022-10-01T12:55:53.708Z,24.15
2022-10-01T12:56:53.751Z,24.08
2022-10-01T12:57:53.668Z,24.43
2022-10-01T12:58:53.683Z,24.05